Arklow River — PBFX — position and weather

sailwx.info

Track history (hours):
 
Tides and Currents Weather Stations Pressure Air Temp Water Temp Dewpoint Dewpoint Depression Visibility Wind Speed Wind Dir Waves Ship Positions

Arklow River

Last reported at 2017-Sep-19 11:30 UTC. Time now 2017-Sep-19 11:46 UTC.
Position N 53°49' E 008°10'.

Length 32 m; draft 5.3 m.

Type: Tug. MMSI: 244790899.

Date/timePositionNaut miles runAvg speedWind from/ knotsBaromVisibWave heightAir tempDewpointWater temp
2017-Sep-19 11:30N 53°49' E 008°10'0 0.6
2017-Sep-19 10:59N 53°50' E 008°09'0 0.8
2017-Sep-19 10:30N 53°49' E 008°10'0 0.5
2017-Sep-19 10:00N 53°49' E 008°10'0 0.3
2017-Sep-19 09:30N 53°49' E 008°10'0 0.1
2017-Sep-19 09:00N 53°49' E 008°10'0 0.3
2017-Sep-19 08:30N 53°49' E 008°10'0 0.1
2017-Sep-19 08:00N 53°49' E 008°11'0 0.1
2017-Sep-19 07:30N 53°49' E 008°11'0 0.0
2017-Sep-19 07:00N 53°49' E 008°11'0 0.0
2017-Sep-19 06:30N 53°49' E 008°11'0 0.1
2017-Sep-19 06:00N 53°49' E 008°11'1 1.4
2017-Sep-19 05:30N 53°49' E 008°10'0 0.8
2017-Sep-19 05:00N 53°49' E 008°10'0 0.4
2017-Sep-19 04:30N 53°49' E 008°10'0 0.7
2017-Sep-19 04:00N 53°49' E 008°10'0 0.4
2017-Sep-19 03:30N 53°49' E 008°10'0 0.9
2017-Sep-19 03:00N 53°49' E 008°10'0 1.0
2017-Sep-19 02:30N 53°49' E 008°09'0 0.4
2017-Sep-19 02:00N 53°50' E 008°10'1 2.5
2017-Sep-19 01:30N 53°48' E 008°11'0 0.3
2017-Sep-19 01:00N 53°49' E 008°10'0 0.2
2017-Sep-19 00:30N 53°49' E 008°10'0 0.2
2017-Sep-19 00:00N 53°49' E 008°10'0 0.5
2017-Sep-18 23:30N 53°49' E 008°10'1 1.3
2017-Sep-18 23:00N 53°49' E 008°09'0 0.8
2017-Sep-18 22:30N 53°49' E 008°10'0 1.0
2017-Sep-18 22:00N 53°49' E 008°10'0 0.9
2017-Sep-18 21:30N 53°48' E 008°11'1 1.9
2017-Sep-18 21:00N 53°49' E 008°11'0 0.0
2017-Sep-18 20:30N 53°49' E 008°11'0 0.0
2017-Sep-18 20:00N 53°49' E 008°11'0 0.0
2017-Sep-18 19:30N 53°49' E 008°11'0 0.0
2017-Sep-18 19:00N 53°49' E 008°11'0 0.1
2017-Sep-18 18:30N 53°49' E 008°11'0 0.7
2017-Sep-18 18:00N 53°49' E 008°11'0 0.6
2017-Sep-18 17:31N 53°49' E 008°11'0 0.2
2017-Sep-18 17:00N 53°49' E 008°11'1 1.6
2017-Sep-18 16:30N 53°49' E 008°09'2 3.9
2017-Sep-18 16:00N 53°51' E 008°08'2 4.0
2017-Sep-18 15:30N 53°53' E 008°06'2 3.9
2017-Sep-18 15:00N 53°54' E 008°03'2 3.7
2017-Sep-18 14:30N 53°55' E 008°00'2 3.8
2017-Sep-18 14:00N 53°55' E 007°57'2 3.8
2017-Sep-18 13:30N 53°56' E 007°54'2 3.6
2017-Sep-18 13:00N 53°56' E 007°51'21 4.8
2017-Sep-18 08:30N 53°52' E 007°15'3 5.8
2017-Sep-18 08:00N 53°51' E 007°11'64 5.4
2017-Sep-17 20:15N 53°33' E 005°27'2 5.1
2017-Sep-17 19:56N 53°33' E 005°24'2 5.2
2017-Sep-17 19:28N 53°32' E 005°20'3 5.6
2017-Sep-17 19:00N 53°31' E 005°16'3 5.8
2017-Sep-17 18:31N 53°30' E 005°12'3 6.6
2017-Sep-17 18:00N 53°29' E 005°07'3 6.8
2017-Sep-17 17:30N 53°28' E 005°01'3 6.8
2017-Sep-17 17:01N 53°27' E 004°56'4 7.2
2017-Sep-17 16:31N 53°26' E 004°50'4 7.2
2017-Sep-17 15:58N 53°24' E 004°45'4 6.6
2017-Sep-17 15:19N 53°20' E 004°41'34 6.1
2017-Sep-17 09:39N 52°50' E 004°13'6 4.3
2017-Sep-17 08:19N 52°45' E 004°07'1 4.0
2017-Sep-17 07:58N 52°44' E 004°06'2 4.0
2017-Sep-17 07:30N 52°43' E 004°05'3 3.9
2017-Sep-17 06:50N 52°40' E 004°02'5 3.8
2017-Sep-17 05:39N 52°36' E 003°58'1 3.8
2017-Sep-17 05:21N 52°36' E 003°57'1 3.9
2017-Sep-17 05:00N 52°34' E 003°56'2 4.2
2017-Sep-17 04:30N 52°33' E 003°55'2 4.6
2017-Sep-17 04:00N 52°31' E 003°53'3 4.9
2017-Sep-17 03:29N 52°28' E 003°51'3 5.1
2017-Sep-17 02:58N 52°27' E 003°48'50 5.0
2017-Sep-16 16:58N 51°39' E 003°21'2 4.0
2017-Sep-16 16:22N 51°37' E 003°22'2 4.1
2017-Sep-16 15:55N 51°35' E 003°24'2 4.5
2017-Sep-16 15:27N 51°33' E 003°25'2 4.4
2017-Sep-16 15:00N 51°31' E 003°26'3 5.4
2017-Sep-16 14:30N 51°30' E 003°29'3 5.8
2017-Sep-16 14:00N 51°27' E 003°32'3 6.1
2017-Sep-16 13:30N 51°26' E 003°36'3 5.8
2017-Sep-16 13:00N 51°27' E 003°41'2 3.2
2017-Sep-16 12:25N 51°28' E 003°43'0 0.2
2017-Sep-16 11:58N 51°28' E 003°43'0 0.0
2017-Sep-16 11:22N 51°28' E 003°43'0 0.0
2017-Sep-16 10:55N 51°28' E 003°43'0 0.0
2017-Sep-16 10:25N 51°28' E 003°43'0 0.0
2017-Sep-16 09:49N 51°28' E 003°43'0 0.0
2017-Sep-16 09:25N 51°28' E 003°43'0 0.0
2017-Sep-16 08:55N 51°28' E 003°43'0 0.0
2017-Sep-16 08:13N 51°28' E 003°43'0 0.0
2017-Sep-16 07:55N 51°28' E 003°43'0 0.0
2017-Sep-16 07:19N 51°28' E 003°43'0 0.0
2017-Sep-16 06:55N 51°28' E 003°43'0 0.0
2017-Sep-16 06:22N 51°28' E 003°43'0 0.0
2017-Sep-16 05:43N 51°28' E 003°43'0 0.0
2017-Sep-16 05:25N 51°28' E 003°43'0 0.0
2017-Sep-16 04:55N 51°28' E 003°43'0 0.0
2017-Sep-16 04:25N 51°28' E 003°43'0 0.0
2017-Sep-16 03:49N 51°28' E 003°43'0 0.0
2017-Sep-16 03:25N 51°28' E 003°43'0 0.0
2017-Sep-16 02:43N 51°28' E 003°43'0 0.0
2017-Sep-16 02:13N 51°28' E 003°43'0 0.0
2017-Sep-16 01:16N 51°28' E 003°43'0 0.0
2017-Sep-16 00:43N 51°28' E 003°43'0 0.0
2017-Sep-16 00:19N 51°28' E 003°43'0 0.0
2017-Sep-15 23:55N 51°28' E 003°43'0 0.0
2017-Sep-15 23:25N 51°28' E 003°43'0 0.0
2017-Sep-15 22:43N 51°28' E 003°43'0 0.0
2017-Sep-15 22:25N 51°28' E 003°43'0 0.0
2017-Sep-15 21:58N 51°28' E 003°43'0 0.0
2017-Sep-15 21:25N 51°28' E 003°43'1 3.3
2017-Sep-15 21:00N 51°27' E 003°42'0 1.0
2017-Sep-15 20:30N 51°27' E 003°42'0 0.1
2017-Sep-15 20:01N 51°27' E 003°42'1 2.7
2017-Sep-15 19:29N 51°28' E 003°41'0 0.0
2017-Sep-15 19:00N 51°28' E 003°41'0 0.0
2017-Sep-15 18:30N 51°28' E 003°41'0 0.0
2017-Sep-15 18:00N 51°28' E 003°41'0 0.0
2017-Sep-15 17:30N 51°28' E 003°41'0 0.0
2017-Sep-15 17:00N 51°28' E 003°41'0 0.4
2017-Sep-15 16:30N 51°27' E 003°41'1 2.0
2017-Sep-15 16:00N 51°27' E 003°42'0 0.0
2017-Sep-15 15:30N 51°27' E 003°42'0 0.0
2017-Sep-15 15:00N 51°27' E 003°42'1 1.8
2017-Sep-15 14:19N 51°28' E 003°40'0 0.0
2017-Sep-15 13:43N 51°28' E 003°40'0 0.0
2017-Sep-15 13:25N 51°28' E 003°40'0 0.0
2017-Sep-15 12:55N 51°28' E 003°40'0 0.0
2017-Sep-15 12:25N 51°28' E 003°40'0 0.0
2017-Sep-15 11:55N 51°28' E 003°40'0 0.0
2017-Sep-15 11:25N 51°28' E 003°40'0 0.0
2017-Sep-15 10:58N 51°28' E 003°40'0 0.0
2017-Sep-15 10:25N 51°28' E 003°40'0 0.0
2017-Sep-15 09:43N 51°28' E 003°40'0 0.0
2017-Sep-15 09:25N 51°28' E 003°40'0 0.0
2017-Sep-15 08:55N 51°28' E 003°40'0 0.0
2017-Sep-15 08:07N 51°28' E 003°40'0 0.0
2017-Sep-15 07:49N 51°28' E 003°40'0 0.0
2017-Sep-15 07:25N 51°28' E 003°40'0 0.0
2017-Sep-15 06:52N 51°28' E 003°40'0 0.0
2017-Sep-15 06:07N 51°28' E 003°40'0 0.0
2017-Sep-15 06:00N 51°28' E 003°40'0 0.1
2017-Sep-15 05:30N 51°28' E 003°40'2 3.1
2017-Sep-15 05:00N 51°26' E 003°41'2 3.2
2017-Sep-15 04:30N 51°28' E 003°41'0 0.0
2017-Sep-15 04:00N 51°28' E 003°41'0 0.0
2017-Sep-15 03:30N 51°28' E 003°41'0 0.0
2017-Sep-15 02:48N 51°28' E 003°41'0 0.0
2017-Sep-15 02:24N 51°28' E 003°41'0 0.0
2017-Sep-15 01:42N 51°28' E 003°41'0 0.0
2017-Sep-15 01:27N 51°28' E 003°41'0 0.0
2017-Sep-15 01:00N 51°28' E 003°41'0 0.0
2017-Sep-15 00:18N 51°28' E 003°41'0 0.0
2017-Sep-14 23:54N 51°28' E 003°41'0 0.0
2017-Sep-14 23:30N 51°28' E 003°41'0 0.0
2017-Sep-14 22:54N 51°28' E 003°41'0 0.0
2017-Sep-14 21:39N 51°28' E 003°41'0 0.0
2017-Sep-14 21:18N 51°28' E 003°41'0 0.0
2017-Sep-14 21:00N 51°28' E 003°41'0 0.0
2017-Sep-14 20:21N 51°28' E 003°41'0 0.0
2017-Sep-14 20:00N 51°28' E 003°41'0 0.0
2017-Sep-14 19:03N 51°28' E 003°41'0 0.0
2017-Sep-14 18:45N 51°28' E 003°41'0 0.0
2017-Sep-14 18:15N 51°28' E 003°41'0 0.0
2017-Sep-14 17:54N 51°28' E 003°41'0 0.0
2017-Sep-14 17:24N 51°28' E 003°41'1 3.3
2017-Sep-14 17:00N 51°28' E 003°42'0 0.0
2017-Sep-14 16:30N 51°28' E 003°42'0 0.1
2017-Sep-14 16:00N 51°28' E 003°42'0 0.2
2017-Sep-14 15:30N 51°28' E 003°42'0 0.0
2017-Sep-14 15:00N 51°28' E 003°42'1 2.6
2017-Sep-14 14:28N 51°28' E 003°40'0 0.0
2017-Sep-14 13:58N 51°28' E 003°40'0 0.0
2017-Sep-14 13:28N 51°28' E 003°40'0 0.0
2017-Sep-14 12:52N 51°28' E 003°40'0 0.0
2017-Sep-14 12:28N 51°28' E 003°40'0 0.0
2017-Sep-14 11:58N 51°28' E 003°40'0 0.0
2017-Sep-14 11:28N 51°28' E 003°40'0 0.0
2017-Sep-14 10:58N 51°28' E 003°40'0 0.0
2017-Sep-14 09:37N 51°28' E 003°40'0 0.0
2017-Sep-14 09:22N 51°28' E 003°40'0 0.0
2017-Sep-14 08:58N 51°28' E 003°40'0 0.0
2017-Sep-14 08:28N 51°28' E 003°40'0 0.0
2017-Sep-14 07:58N 51°28' E 003°40'0 0.0
2017-Sep-14 07:28N 51°28' E 003°40'0 0.0
2017-Sep-14 06:58N 51°28' E 003°40'0 0.0
2017-Sep-14 06:28N 51°28' E 003°40'0 0.0
2017-Sep-14 05:58N 51°28' E 003°40'1 2.4
2017-Sep-14 05:30N 51°28' E 003°42'0 0.6
2017-Sep-14 05:00N 51°28' E 003°42'1 1.1
2017-Sep-14 04:15N 51°28' E 003°40'0 0.0
2017-Sep-14 03:51N 51°28' E 003°40'0 0.0
2017-Sep-14 03:24N 51°28' E 003°40'0 0.0
2017-Sep-14 03:00N 51°28' E 003°40'0 0.0
2017-Sep-14 02:30N 51°28' E 003°40'1 1.3
2017-Sep-14 01:58N 51°27' E 003°42'1 2.4
2017-Sep-14 01:30N 51°27' E 003°43'0 0.1
2017-Sep-14 00:59N 51°27' E 003°43'1 1.4
2017-Sep-14 00:30N 51°27' E 003°42'1 2.4
2017-Sep-14 00:00N 51°28' E 003°43'1 2.8
2017-Sep-13 23:28N 51°28' E 003°40'0 0.0
2017-Sep-13 22:58N 51°28' E 003°40'0 0.0
2017-Sep-13 22:22N 51°28' E 003°40'0 0.0
2017-Sep-13 21:55N 51°28' E 003°40'0 0.0
2017-Sep-13 21:28N 51°28' E 003°40'0 0.0
2017-Sep-13 21:00N 51°28' E 003°40'1 1.9
2017-Sep-13 20:30N 51°28' E 003°42'1 1.8
2017-Sep-13 20:00N 51°28' E 003°40'0 0.0
2017-Sep-13 19:30N 51°28' E 003°40'0 0.0
2017-Sep-13 18:54N 51°28' E 003°40'0 0.0
2017-Sep-13 18:30N 51°28' E 003°40'0 0.0
2017-Sep-13 18:00N 51°28' E 003°40'0 0.0
2017-Sep-13 17:30N 51°28' E 003°40'0 0.0
2017-Sep-13 17:00N 51°28' E 003°40'0 0.0
2017-Sep-13 16:30N 51°28' E 003°40'0 0.0
2017-Sep-13 15:54N 51°28' E 003°40'0 0.0
2017-Sep-13 15:30N 51°28' E 003°40'0 0.0
2017-Sep-13 14:57N 51°28' E 003°40'0 0.0
2017-Sep-13 14:30N 51°28' E 003°40'0 0.0
2017-Sep-13 13:58N 51°28' E 003°40'0 0.0
2017-Sep-13 13:28N 51°28' E 003°40'0 0.0
2017-Sep-13 12:52N 51°28' E 003°40'0 0.0
2017-Sep-13 12:28N 51°28' E 003°40'0 0.0
2017-Sep-13 11:58N 51°28' E 003°40'0 0.0
2017-Sep-13 11:28N 51°28' E 003°40'0 0.0
2017-Sep-13 10:58N 51°28' E 003°40'0 0.0
2017-Sep-13 10:28N 51°28' E 003°40'0 0.0
2017-Sep-13 09:58N 51°28' E 003°40'0 0.0
2017-Sep-13 09:28N 51°28' E 003°40'0 0.0
2017-Sep-13 08:52N 51°28' E 003°40'0 0.0
2017-Sep-13 08:28N 51°28' E 003°40'0 0.0
2017-Sep-13 07:58N 51°28' E 003°40'0 0.0
2017-Sep-13 07:28N 51°28' E 003°40'0 0.0
2017-Sep-13 06:49N 51°28' E 003°40'0 0.0
2017-Sep-13 06:28N 51°28' E 003°40'0 0.0
2017-Sep-13 05:58N 51°28' E 003°40'0 0.0
2017-Sep-13 05:28N 51°28' E 003°40'0 0.0
2017-Sep-13 04:55N 51°28' E 003°40'0 0.0
2017-Sep-13 04:28N 51°28' E 003°40'0 0.0
2017-Sep-13 03:58N 51°28' E 003°40'0 0.0
2017-Sep-13 03:28N 51°28' E 003°40'0 0.0
2017-Sep-13 02:58N 51°28' E 003°40'0 0.0
2017-Sep-13 02:28N 51°28' E 003°40'0 0.0
2017-Sep-13 01:58N 51°28' E 003°40'0 0.0
2017-Sep-13 01:25N 51°28' E 003°40'0 0.0
2017-Sep-13 00:58N 51°28' E 003°40'0 0.0
2017-Sep-13 00:28N 51°28' E 003°40'0 0.0
2017-Sep-12 23:58N 51°28' E 003°40'0 0.0
2017-Sep-12 23:28N 51°28' E 003°40'0 0.0
2017-Sep-12 22:58N 51°28' E 003°40'0 0.0
2017-Sep-12 22:28N 51°28' E 003°40'0 0.0
2017-Sep-12 21:58N 51°28' E 003°40'0 0.0
2017-Sep-12 21:25N 51°28' E 003°40'0 0.0
2017-Sep-12 20:58N 51°28' E 003°40'0 0.0
2017-Sep-12 20:28N 51°28' E 003°40'0 0.0
2017-Sep-12 19:58N 51°28' E 003°40'0 0.0
2017-Sep-12 19:30N 51°28' E 003°40'0 0.6
2017-Sep-12 19:00N 51°27' E 003°41'1 2.8
2017-Sep-12 18:31N 51°26' E 003°39'2 2.3
2017-Sep-12 17:50N 51°28' E 003°40'0 0.0
2017-Sep-12 17:26N 51°28' E 003°40'0 0.0
2017-Sep-12 16:59N 51°28' E 003°40'0 0.0
2017-Sep-12 16:26N 51°28' E 003°40'0 0.0
2017-Sep-12 15:56N 51°28' E 003°40'0 0.0
2017-Sep-12 15:23N 51°28' E 003°40'2 4.6
2017-Sep-12 15:00N 51°26' E 003°42'4 8.3
2017-Sep-12 14:30N 51°22' E 003°45'4 8.6
2017-Sep-12 14:00N 51°21' E 003°51'1 2.0
2017-Sep-12 13:30N 51°21' E 003°49'3 6.7
2017-Sep-12 13:00N 51°22' E 003°44'3 5.3
2017-Sep-12 12:30N 51°25' E 003°43'3 5.3
2017-Sep-12 12:00N 51°26' E 003°39'2 4.7
2017-Sep-12 11:30N 51°26' E 003°36'2 4.7
2017-Sep-12 11:00N 51°27' E 003°33'2 4.6
2017-Sep-12 10:30N 51°29' E 003°30'3 5.4
2017-Sep-12 10:00N 51°30' E 003°27'3 5.3
2017-Sep-12 09:30N 51°33' E 003°25'2 5.0
2017-Sep-12 09:00N 51°35' E 003°23'3 5.2
2017-Sep-12 08:30N 51°37' E 003°22'3 5.7
2017-Sep-12 08:00N 51°40' E 003°20'3 5.4
2017-Sep-12 07:23N 51°43' E 003°16'2 5.3
2017-Sep-12 06:59N 51°44' E 003°14'3 4.8
2017-Sep-12 06:27N 51°46' E 003°11'3 4.9
2017-Sep-12 05:52N 51°49' E 003°09'66 6.6
2017-Sep-11 19:54N 52°41' E 002°04'2 5.6
2017-Sep-11 19:30N 52°43' E 002°01'3 5.2
2017-Sep-11 19:00N 52°45' E 001°58'3 5.2
2017-Sep-11 18:30N 52°46' E 001°55'2 4.7
2017-Sep-11 18:00N 52°48' E 001°52'2 4.9
2017-Sep-11 17:30N 52°49' E 001°48'2 4.4
2017-Sep-11 17:00N 52°50' E 001°45'2 4.5
2017-Sep-11 16:30N 52°51' E 001°42'2 3.9
2017-Sep-11 16:01N 52°52' E 001°39'1 2.9
2017-Sep-11 15:30N 52°53' E 001°37'2 3.4
2017-Sep-11 15:00N 52°54' E 001°35'2 3.7
2017-Sep-11 14:30N 52°55' E 001°32'2 4.2
2017-Sep-11 14:00N 52°56' E 001°29'2 4.7
2017-Sep-11 13:30N 52°57' E 001°26'3 5.2
2017-Sep-11 13:00N 52°58' E 001°22'3 5.9
2017-Sep-11 12:31N 52°58' E 001°17'3 6.2
2017-Sep-11 12:00N 52°59' E 001°12'61 4.2
2017-Sep-10 21:19N 53°51' E 000°17'2 4.8
2017-Sep-10 20:53N 53°53' E 000°15'3 5.3
2017-Sep-10 20:21N 53°55' E 000°11'2 5.4
2017-Sep-10 20:00N 53°56' E 000°09'9 5.8
2017-Sep-10 18:26N 54°04' E 000°01'3 6.2
2017-Sep-10 18:00N 54°06' W 000°01'3 6.7
2017-Sep-10 17:30N 54°09' W 000°04'3 6.4
2017-Sep-10 17:00N 54°12' W 000°07'3 6.1
2017-Sep-10 16:30N 54°15' W 000°10'3 5.7
2017-Sep-10 16:01N 54°17' W 000°13'3 5.6
2017-Sep-10 15:30N 54°19' W 000°16'3 5.2
2017-Sep-10 15:00N 54°21' W 000°19'5 5.1
2017-Sep-10 14:00N 54°25' W 000°24'2 4.7
2017-Sep-10 13:30N 54°27' W 000°27'26 5.2
2017-Sep-10 08:29N 54°46' W 000°56'3 6.7
2017-Sep-10 08:00N 54°49' W 001°00'4 7.5
2017-Sep-10 07:30N 54°51' W 001°05'4 7.7
2017-Sep-10 07:00N 54°54' W 001°09'4 7.8
2017-Sep-10 06:30N 54°57' W 001°14'4 8.1
2017-Sep-10 06:00N 54°60' W 001°19'3 6.8
2017-Sep-10 05:30N 55°01' W 001°25'3 5.4
2017-Sep-10 05:00N 54°59' W 001°29'1 2.3
2017-Sep-10 04:30N 54°59' W 001°31'0 0.1
2017-Sep-10 04:00N 54°59' W 001°31'0 0.0
2017-Sep-10 03:30N 54°59' W 001°31'0 0.0
2017-Sep-10 03:00N 54°59' W 001°31'0 0.0
2017-Sep-10 02:30N 54°59' W 001°31'0 0.0
2017-Sep-10 02:00N 54°59' W 001°31'0 0.0
2017-Sep-10 01:30N 54°59' W 001°31'0 0.0
2017-Sep-10 01:00N 54°59' W 001°31'0 0.0
2017-Sep-10 00:30N 54°59' W 001°31'0 0.0
2017-Sep-10 00:00N 54°59' W 001°31'0 0.0
2017-Sep-09 23:30N 54°59' W 001°31'0 0.0
2017-Sep-09 23:00N 54°59' W 001°31'0 0.0
2017-Sep-09 22:30N 54°59' W 001°31'0 0.0
2017-Sep-09 21:51N 54°59' W 001°31'0 0.0
2017-Sep-09 21:21N 54°59' W 001°31'0 0.0
2017-Sep-09 20:51N 54°59' W 001°31'0 0.0
2017-Sep-09 20:18N 54°59' W 001°31'0 0.0
2017-Sep-09 19:54N 54°59' W 001°31'0 0.0
2017-Sep-09 19:21N 54°59' W 001°31'0 0.0
2017-Sep-09 18:54N 54°59' W 001°31'0 0.0
2017-Sep-09 18:24N 54°59' W 001°31'0 0.0
2017-Sep-09 17:57N 54°59' W 001°31'0 0.0
2017-Sep-09 17:27N 54°59' W 001°31'0 0.0
2017-Sep-09 16:57N 54°59' W 001°31'0 0.1
2017-Sep-09 16:30N 54°59' W 001°31'1 1.3
2017-Sep-09 16:00N 54°59' W 001°30'2 5.0
2017-Sep-09 15:30N 55°00' W 001°26'3 5.5
2017-Sep-09 15:00N 55°02' W 001°21'2 4.1
2017-Sep-09 14:30N 55°04' W 001°21'1 1.6
2017-Sep-09 14:00N 55°03' W 001°20'1 1.9
2017-Sep-09 13:30N 55°02' W 001°19'1 2.3
2017-Sep-09 13:00N 55°01' W 001°18'1 2.4
2017-Sep-09 12:30N 55°00' W 001°17'1 2.6
2017-Sep-09 12:00N 54°59' W 001°16'2 3.0
2017-Sep-09 11:30N 54°58' W 001°15'  
Track history (hours):
 
Tides and Currents Weather Stations Pressure Air Temp Water Temp Dewpoint Dewpoint Depression Visibility Wind Speed Wind Dir Waves Ship Positions

Arklow River

Last reported at 2017-Sep-19 11:30 UTC. Time now 2017-Sep-19 11:46 UTC.
Position N 53°49' E 008°10'.

Length 32 m; draft 5.3 m.

Type: Tug. MMSI: 244790899.

Date/timePositionNaut miles runAvg speedWind from/ knotsBaromVisibWave heightAir tempDewpointWater temp
2017-Sep-19 11:30N 53°49' E 008°10'0 0.6
2017-Sep-19 10:59N 53°50' E 008°09'0 0.8
2017-Sep-19 10:30N 53°49' E 008°10'0 0.5
2017-Sep-19 10:00N 53°49' E 008°10'0 0.3
2017-Sep-19 09:30N 53°49' E 008°10'0 0.1
2017-Sep-19 09:00N 53°49' E 008°10'0 0.3
2017-Sep-19 08:30N 53°49' E 008°10'0 0.1
2017-Sep-19 08:00N 53°49' E 008°11'0 0.1
2017-Sep-19 07:30N 53°49' E 008°11'0 0.0
2017-Sep-19 07:00N 53°49' E 008°11'0 0.0
2017-Sep-19 06:30N 53°49' E 008°11'0 0.1
2017-Sep-19 06:00N 53°49' E 008°11'1 1.4
2017-Sep-19 05:30N 53°49' E 008°10'0 0.8
2017-Sep-19 05:00N 53°49' E 008°10'0 0.4
2017-Sep-19 04:30N 53°49' E 008°10'0 0.7
2017-Sep-19 04:00N 53°49' E 008°10'0 0.4
2017-Sep-19 03:30N 53°49' E 008°10'0 0.9
2017-Sep-19 03:00N 53°49' E 008°10'0 1.0
2017-Sep-19 02:30N 53°49' E 008°09'0 0.4
2017-Sep-19 02:00N 53°50' E 008°10'1 2.5
2017-Sep-19 01:30N 53°48' E 008°11'0 0.3
2017-Sep-19 01:00N 53°49' E 008°10'0 0.2
2017-Sep-19 00:30N 53°49' E 008°10'0 0.2
2017-Sep-19 00:00N 53°49' E 008°10'0 0.5
2017-Sep-18 23:30N 53°49' E 008°10'1 1.3
2017-Sep-18 23:00N 53°49' E 008°09'0 0.8
2017-Sep-18 22:30N 53°49' E 008°10'0 1.0
2017-Sep-18 22:00N 53°49' E 008°10'0 0.9
2017-Sep-18 21:30N 53°48' E 008°11'1 1.9
2017-Sep-18 21:00N 53°49' E 008°11'0 0.0
2017-Sep-18 20:30N 53°49' E 008°11'0 0.0
2017-Sep-18 20:00N 53°49' E 008°11'0 0.0
2017-Sep-18 19:30N 53°49' E 008°11'0 0.0
2017-Sep-18 19:00N 53°49' E 008°11'0 0.1
2017-Sep-18 18:30N 53°49' E 008°11'0 0.7
2017-Sep-18 18:00N 53°49' E 008°11'0 0.6
2017-Sep-18 17:31N 53°49' E 008°11'0 0.2
2017-Sep-18 17:00N 53°49' E 008°11'1 1.6
2017-Sep-18 16:30N 53°49' E 008°09'2 3.9
2017-Sep-18 16:00N 53°51' E 008°08'2 4.0
2017-Sep-18 15:30N 53°53' E 008°06'2 3.9
2017-Sep-18 15:00N 53°54' E 008°03'2 3.7
2017-Sep-18 14:30N 53°55' E 008°00'2 3.8
2017-Sep-18 14:00N 53°55' E 007°57'2 3.8
2017-Sep-18 13:30N 53°56' E 007°54'2 3.6
2017-Sep-18 13:00N 53°56' E 007°51'21 4.8
2017-Sep-18 08:30N 53°52' E 007°15'3 5.8
2017-Sep-18 08:00N 53°51' E 007°11'64 5.4
2017-Sep-17 20:15N 53°33' E 005°27'2 5.1
2017-Sep-17 19:56N 53°33' E 005°24'2 5.2
2017-Sep-17 19:28N 53°32' E 005°20'3 5.6
2017-Sep-17 19:00N 53°31' E 005°16'3 5.8
2017-Sep-17 18:31N 53°30' E 005°12'3 6.6
2017-Sep-17 18:00N 53°29' E 005°07'3 6.8
2017-Sep-17 17:30N 53°28' E 005°01'3 6.8
2017-Sep-17 17:01N 53°27' E 004°56'4 7.2
2017-Sep-17 16:31N 53°26' E 004°50'4 7.2
2017-Sep-17 15:58N 53°24' E 004°45'4 6.6
2017-Sep-17 15:19N 53°20' E 004°41'34 6.1
2017-Sep-17 09:39N 52°50' E 004°13'6 4.3
2017-Sep-17 08:19N 52°45' E 004°07'1 4.0
2017-Sep-17 07:58N 52°44' E 004°06'2 4.0
2017-Sep-17 07:30N 52°43' E 004°05'3 3.9
2017-Sep-17 06:50N 52°40' E 004°02'5 3.8
2017-Sep-17 05:39N 52°36' E 003°58'1 3.8
2017-Sep-17 05:21N 52°36' E 003°57'1 3.9
2017-Sep-17 05:00N 52°34' E 003°56'2 4.2
2017-Sep-17 04:30N 52°33' E 003°55'2 4.6
2017-Sep-17 04:00N 52°31' E 003°53'3 4.9
2017-Sep-17 03:29N 52°28' E 003°51'3 5.1
2017-Sep-17 02:58N 52°27' E 003°48'50 5.0
2017-Sep-16 16:58N 51°39' E 003°21'2 4.0
2017-Sep-16 16:22N 51°37' E 003°22'2 4.1
2017-Sep-16 15:55N 51°35' E 003°24'2 4.5
2017-Sep-16 15:27N 51°33' E 003°25'2 4.4
2017-Sep-16 15:00N 51°31' E 003°26'3 5.4
2017-Sep-16 14:30N 51°30' E 003°29'3 5.8
2017-Sep-16 14:00N 51°27' E 003°32'3 6.1
2017-Sep-16 13:30N 51°26' E 003°36'3 5.8
2017-Sep-16 13:00N 51°27' E 003°41'2 3.2
2017-Sep-16 12:25N 51°28' E 003°43'0 0.2
2017-Sep-16 11:58N 51°28' E 003°43'0 0.0
2017-Sep-16 11:22N 51°28' E 003°43'0 0.0
2017-Sep-16 10:55N 51°28' E 003°43'0 0.0
2017-Sep-16 10:25N 51°28' E 003°43'0 0.0
2017-Sep-16 09:49N 51°28' E 003°43'0 0.0
2017-Sep-16 09:25N 51°28' E 003°43'0 0.0
2017-Sep-16 08:55N 51°28' E 003°43'0 0.0
2017-Sep-16 08:13N 51°28' E 003°43'0 0.0
2017-Sep-16 07:55N 51°28' E 003°43'0 0.0
2017-Sep-16 07:19N 51°28' E 003°43'0 0.0
2017-Sep-16 06:55N 51°28' E 003°43'0 0.0
2017-Sep-16 06:22N 51°28' E 003°43'0 0.0
2017-Sep-16 05:43N 51°28' E 003°43'0 0.0
2017-Sep-16 05:25N 51°28' E 003°43'0 0.0
2017-Sep-16 04:55N 51°28' E 003°43'0 0.0
2017-Sep-16 04:25N 51°28' E 003°43'0 0.0
2017-Sep-16 03:49N 51°28' E 003°43'0 0.0
2017-Sep-16 03:25N 51°28' E 003°43'0 0.0
2017-Sep-16 02:43N 51°28' E 003°43'0 0.0
2017-Sep-16 02:13N 51°28' E 003°43'0 0.0
2017-Sep-16 01:16N 51°28' E 003°43'0 0.0
2017-Sep-16 00:43N 51°28' E 003°43'0 0.0
2017-Sep-16 00:19N 51°28' E 003°43'0 0.0
2017-Sep-15 23:55N 51°28' E 003°43'0 0.0
2017-Sep-15 23:25N 51°28' E 003°43'0 0.0
2017-Sep-15 22:43N 51°28' E 003°43'0 0.0
2017-Sep-15 22:25N 51°28' E 003°43'0 0.0
2017-Sep-15 21:58N 51°28' E 003°43'0 0.0
2017-Sep-15 21:25N 51°28' E 003°43'1 3.3
2017-Sep-15 21:00N 51°27' E 003°42'0 1.0
2017-Sep-15 20:30N 51°27' E 003°42'0 0.1
2017-Sep-15 20:01N 51°27' E 003°42'1 2.7
2017-Sep-15 19:29N 51°28' E 003°41'0 0.0
2017-Sep-15 19:00N 51°28' E 003°41'0 0.0
2017-Sep-15 18:30N 51°28' E 003°41'0 0.0
2017-Sep-15 18:00N 51°28' E 003°41'0 0.0
2017-Sep-15 17:30N 51°28' E 003°41'0 0.0
2017-Sep-15 17:00N 51°28' E 003°41'0 0.4
2017-Sep-15 16:30N 51°27' E 003°41'1 2.0
2017-Sep-15 16:00N 51°27' E 003°42'0 0.0
2017-Sep-15 15:30N 51°27' E 003°42'0 0.0
2017-Sep-15 15:00N 51°27' E 003°42'1 1.8
2017-Sep-15 14:19N 51°28' E 003°40'0 0.0
2017-Sep-15 13:43N 51°28' E 003°40'0 0.0
2017-Sep-15 13:25N 51°28' E 003°40'0 0.0
2017-Sep-15 12:55N 51°28' E 003°40'0 0.0
2017-Sep-15 12:25N 51°28' E 003°40'0 0.0
2017-Sep-15 11:55N 51°28' E 003°40'0 0.0
2017-Sep-15 11:25N 51°28' E 003°40'0 0.0
2017-Sep-15 10:58N 51°28' E 003°40'0 0.0
2017-Sep-15 10:25N 51°28' E 003°40'0 0.0
2017-Sep-15 09:43N 51°28' E 003°40'0 0.0
2017-Sep-15 09:25N 51°28' E 003°40'0 0.0
2017-Sep-15 08:55N 51°28' E 003°40'0 0.0
2017-Sep-15 08:07N 51°28' E 003°40'0 0.0
2017-Sep-15 07:49N 51°28' E 003°40'0 0.0
2017-Sep-15 07:25N 51°28' E 003°40'0 0.0
2017-Sep-15 06:52N 51°28' E 003°40'0 0.0
2017-Sep-15 06:07N 51°28' E 003°40'0 0.0
2017-Sep-15 06:00N 51°28' E 003°40'0 0.1
2017-Sep-15 05:30N 51°28' E 003°40'2 3.1
2017-Sep-15 05:00N 51°26' E 003°41'2 3.2
2017-Sep-15 04:30N 51°28' E 003°41'0 0.0
2017-Sep-15 04:00N 51°28' E 003°41'0 0.0
2017-Sep-15 03:30N 51°28' E 003°41'0 0.0
2017-Sep-15 02:48N 51°28' E 003°41'0 0.0
2017-Sep-15 02:24N 51°28' E 003°41'0 0.0
2017-Sep-15 01:42N 51°28' E 003°41'0 0.0
2017-Sep-15 01:27N 51°28' E 003°41'0 0.0
2017-Sep-15 01:00N 51°28' E 003°41'0 0.0
2017-Sep-15 00:18N 51°28' E 003°41'0 0.0
2017-Sep-14 23:54N 51°28' E 003°41'0 0.0
2017-Sep-14 23:30N 51°28' E 003°41'0 0.0
2017-Sep-14 22:54N 51°28' E 003°41'0 0.0
2017-Sep-14 21:39N 51°28' E 003°41'0 0.0
2017-Sep-14 21:18N 51°28' E 003°41'0 0.0
2017-Sep-14 21:00N 51°28' E 003°41'0 0.0
2017-Sep-14 20:21N 51°28' E 003°41'0 0.0
2017-Sep-14 20:00N 51°28' E 003°41'0 0.0
2017-Sep-14 19:03N 51°28' E 003°41'0 0.0
2017-Sep-14 18:45N 51°28' E 003°41'0 0.0
2017-Sep-14 18:15N 51°28' E 003°41'0 0.0
2017-Sep-14 17:54N 51°28' E 003°41'0 0.0
2017-Sep-14 17:24N 51°28' E 003°41'1 3.3
2017-Sep-14 17:00N 51°28' E 003°42'0 0.0
2017-Sep-14 16:30N 51°28' E 003°42'0 0.1
2017-Sep-14 16:00N 51°28' E 003°42'0 0.2
2017-Sep-14 15:30N 51°28' E 003°42'0 0.0
2017-Sep-14 15:00N 51°28' E 003°42'1 2.6
2017-Sep-14 14:28N 51°28' E 003°40'0 0.0
2017-Sep-14 13:58N 51°28' E 003°40'0 0.0
2017-Sep-14 13:28N 51°28' E 003°40'0 0.0
2017-Sep-14 12:52N 51°28' E 003°40'0 0.0
2017-Sep-14 12:28N 51°28' E 003°40'0 0.0
2017-Sep-14 11:58N 51°28' E 003°40'0 0.0
2017-Sep-14 11:28N 51°28' E 003°40'0 0.0
2017-Sep-14 10:58N 51°28' E 003°40'0 0.0
2017-Sep-14 09:37N 51°28' E 003°40'0 0.0
2017-Sep-14 09:22N 51°28' E 003°40'0 0.0
2017-Sep-14 08:58N 51°28' E 003°40'0 0.0
2017-Sep-14 08:28N 51°28' E 003°40'0 0.0
2017-Sep-14 07:58N 51°28' E 003°40'0 0.0
2017-Sep-14 07:28N 51°28' E 003°40'0 0.0
2017-Sep-14 06:58N 51°28' E 003°40'0 0.0
2017-Sep-14 06:28N 51°28' E 003°40'0 0.0
2017-Sep-14 05:58N 51°28' E 003°40'1 2.4
2017-Sep-14 05:30N 51°28' E 003°42'0 0.6
2017-Sep-14 05:00N 51°28' E 003°42'1 1.1
2017-Sep-14 04:15N 51°28' E 003°40'0 0.0
2017-Sep-14 03:51N 51°28' E 003°40'0 0.0
2017-Sep-14 03:24N 51°28' E 003°40'0 0.0
2017-Sep-14 03:00N 51°28' E 003°40'0 0.0
2017-Sep-14 02:30N 51°28' E 003°40'1 1.3
2017-Sep-14 01:58N 51°27' E 003°42'1 2.4
2017-Sep-14 01:30N 51°27' E 003°43'0 0.1
2017-Sep-14 00:59N 51°27' E 003°43'1 1.4
2017-Sep-14 00:30N 51°27' E 003°42'1 2.4
2017-Sep-14 00:00N 51°28' E 003°43'1 2.8
2017-Sep-13 23:28N 51°28' E 003°40'0 0.0
2017-Sep-13 22:58N 51°28' E 003°40'0 0.0
2017-Sep-13 22:22N 51°28' E 003°40'0 0.0
2017-Sep-13 21:55N 51°28' E 003°40'0 0.0
2017-Sep-13 21:28N 51°28' E 003°40'0 0.0
2017-Sep-13 21:00N 51°28' E 003°40'1 1.9
2017-Sep-13 20:30N 51°28' E 003°42'1 1.8
2017-Sep-13 20:00N 51°28' E 003°40'0 0.0
2017-Sep-13 19:30N 51°28' E 003°40'0 0.0
2017-Sep-13 18:54N 51°28' E 003°40'0 0.0
2017-Sep-13 18:30N 51°28' E 003°40'0 0.0
2017-Sep-13 18:00N 51°28' E 003°40'0 0.0
2017-Sep-13 17:30N 51°28' E 003°40'0 0.0
2017-Sep-13 17:00N 51°28' E 003°40'0 0.0
2017-Sep-13 16:30N 51°28' E 003°40'0 0.0
2017-Sep-13 15:54N 51°28' E 003°40'0 0.0
2017-Sep-13 15:30N 51°28' E 003°40'0 0.0
2017-Sep-13 14:57N 51°28' E 003°40'0 0.0
2017-Sep-13 14:30N 51°28' E 003°40'0 0.0
2017-Sep-13 13:58N 51°28' E 003°40'0 0.0
2017-Sep-13 13:28N 51°28' E 003°40'0 0.0
2017-Sep-13 12:52N 51°28' E 003°40'0 0.0
2017-Sep-13 12:28N 51°28' E 003°40'0 0.0
2017-Sep-13 11:58N 51°28' E 003°40'0 0.0
2017-Sep-13 11:28N 51°28' E 003°40'0 0.0
2017-Sep-13 10:58N 51°28' E 003°40'0 0.0
2017-Sep-13 10:28N 51°28' E 003°40'0 0.0
2017-Sep-13 09:58N 51°28' E 003°40'0 0.0
2017-Sep-13 09:28N 51°28' E 003°40'0 0.0
2017-Sep-13 08:52N 51°28' E 003°40'0 0.0
2017-Sep-13 08:28N 51°28' E 003°40'0 0.0
2017-Sep-13 07:58N 51°28' E 003°40'0 0.0
2017-Sep-13 07:28N 51°28' E 003°40'0 0.0
2017-Sep-13 06:49N 51°28' E 003°40'0 0.0
2017-Sep-13 06:28N 51°28' E 003°40'0 0.0
2017-Sep-13 05:58N 51°28' E 003°40'0 0.0
2017-Sep-13 05:28N 51°28' E 003°40'0 0.0
2017-Sep-13 04:55N 51°28' E 003°40'0 0.0
2017-Sep-13 04:28N 51°28' E 003°40'0 0.0
2017-Sep-13 03:58N 51°28' E 003°40'0 0.0
2017-Sep-13 03:28N 51°28' E 003°40'0 0.0
2017-Sep-13 02:58N 51°28' E 003°40'0 0.0
2017-Sep-13 02:28N 51°28' E 003°40'0 0.0
2017-Sep-13 01:58N 51°28' E 003°40'0 0.0
2017-Sep-13 01:25N 51°28' E 003°40'0 0.0
2017-Sep-13 00:58N 51°28' E 003°40'0 0.0
2017-Sep-13 00:28N 51°28' E 003°40'0 0.0
2017-Sep-12 23:58N 51°28' E 003°40'0 0.0
2017-Sep-12 23:28N 51°28' E 003°40'0 0.0
2017-Sep-12 22:58N 51°28' E 003°40'0 0.0
2017-Sep-12 22:28N 51°28' E 003°40'0 0.0
2017-Sep-12 21:58N 51°28' E 003°40'0 0.0
2017-Sep-12 21:25N 51°28' E 003°40'0 0.0
2017-Sep-12 20:58N 51°28' E 003°40'0 0.0
2017-Sep-12 20:28N 51°28' E 003°40'0 0.0
2017-Sep-12 19:58N 51°28' E 003°40'0 0.0
2017-Sep-12 19:30N 51°28' E 003°40'0 0.6
2017-Sep-12 19:00N 51°27' E 003°41'1 2.8
2017-Sep-12 18:31N 51°26' E 003°39'2 2.3
2017-Sep-12 17:50N 51°28' E 003°40'0 0.0
2017-Sep-12 17:26N 51°28' E 003°40'0 0.0
2017-Sep-12 16:59N 51°28' E 003°40'0 0.0
2017-Sep-12 16:26N 51°28' E 003°40'0 0.0
2017-Sep-12 15:56N 51°28' E 003°40'0 0.0
2017-Sep-12 15:23N 51°28' E 003°40'2 4.6
2017-Sep-12 15:00N 51°26' E 003°42'4 8.3
2017-Sep-12 14:30N 51°22' E 003°45'4 8.6
2017-Sep-12 14:00N 51°21' E 003°51'1 2.0
2017-Sep-12 13:30N 51°21' E 003°49'3 6.7
2017-Sep-12 13:00N 51°22' E 003°44'3 5.3
2017-Sep-12 12:30N 51°25' E 003°43'3 5.3
2017-Sep-12 12:00N 51°26' E 003°39'2 4.7
2017-Sep-12 11:30N 51°26' E 003°36'2 4.7
2017-Sep-12 11:00N 51°27' E 003°33'2 4.6
2017-Sep-12 10:30N 51°29' E 003°30'3 5.4
2017-Sep-12 10:00N 51°30' E 003°27'3 5.3
2017-Sep-12 09:30N 51°33' E 003°25'2 5.0
2017-Sep-12 09:00N 51°35' E 003°23'3 5.2
2017-Sep-12 08:30N 51°37' E 003°22'3 5.7
2017-Sep-12 08:00N 51°40' E 003°20'3 5.4
2017-Sep-12 07:23N 51°43' E 003°16'2 5.3
2017-Sep-12 06:59N 51°44' E 003°14'3 4.8
2017-Sep-12 06:27N 51°46' E 003°11'3 4.9
2017-Sep-12 05:52N 51°49' E 003°09'66 6.6
2017-Sep-11 19:54N 52°41' E 002°04'2 5.6
2017-Sep-11 19:30N 52°43' E 002°01'3 5.2
2017-Sep-11 19:00N 52°45' E 001°58'3 5.2
2017-Sep-11 18:30N 52°46' E 001°55'2 4.7
2017-Sep-11 18:00N 52°48' E 001°52'2 4.9
2017-Sep-11 17:30N 52°49' E 001°48'2 4.4
2017-Sep-11 17:00N 52°50' E 001°45'2 4.5
2017-Sep-11 16:30N 52°51' E 001°42'2 3.9
2017-Sep-11 16:01N 52°52' E 001°39'1 2.9
2017-Sep-11 15:30N 52°53' E 001°37'2 3.4
2017-Sep-11 15:00N 52°54' E 001°35'2 3.7
2017-Sep-11 14:30N 52°55' E 001°32'2 4.2
2017-Sep-11 14:00N 52°56' E 001°29'2 4.7
2017-Sep-11 13:30N 52°57' E 001°26'3 5.2
2017-Sep-11 13:00N 52°58' E 001°22'3 5.9
2017-Sep-11 12:31N 52°58' E 001°17'3 6.2
2017-Sep-11 12:00N 52°59' E 001°12'61 4.2
2017-Sep-10 21:19N 53°51' E 000°17'2 4.8
2017-Sep-10 20:53N 53°53' E 000°15'3 5.3
2017-Sep-10 20:21N 53°55' E 000°11'2 5.4
2017-Sep-10 20:00N 53°56' E 000°09'9 5.8
2017-Sep-10 18:26N 54°04' E 000°01'3 6.2
2017-Sep-10 18:00N 54°06' W 000°01'3 6.7
2017-Sep-10 17:30N 54°09' W 000°04'3 6.4
2017-Sep-10 17:00N 54°12' W 000°07'3 6.1
2017-Sep-10 16:30N 54°15' W 000°10'3 5.7
2017-Sep-10 16:01N 54°17' W 000°13'3 5.6
2017-Sep-10 15:30N 54°19' W 000°16'3 5.2
2017-Sep-10 15:00N 54°21' W 000°19'5 5.1
2017-Sep-10 14:00N 54°25' W 000°24'2 4.7
2017-Sep-10 13:30N 54°27' W 000°27'26 5.2
2017-Sep-10 08:29N 54°46' W 000°56'3 6.7
2017-Sep-10 08:00N 54°49' W 001°00'4 7.5
2017-Sep-10 07:30N 54°51' W 001°05'4 7.7
2017-Sep-10 07:00N 54°54' W 001°09'4 7.8
2017-Sep-10 06:30N 54°57' W 001°14'4 8.1
2017-Sep-10 06:00N 54°60' W 001°19'3 6.8
2017-Sep-10 05:30N 55°01' W 001°25'3 5.4
2017-Sep-10 05:00N 54°59' W 001°29'1 2.3
2017-Sep-10 04:30N 54°59' W 001°31'0 0.1
2017-Sep-10 04:00N 54°59' W 001°31'0 0.0
2017-Sep-10 03:30N 54°59' W 001°31'0 0.0
2017-Sep-10 03:00N 54°59' W 001°31'0 0.0
2017-Sep-10 02:30N 54°59' W 001°31'0 0.0
2017-Sep-10 02:00N 54°59' W 001°31'0 0.0
2017-Sep-10 01:30N 54°59' W 001°31'0 0.0
2017-Sep-10 01:00N 54°59' W 001°31'0 0.0
2017-Sep-10 00:30N 54°59' W 001°31'0 0.0
2017-Sep-10 00:00N 54°59' W 001°31'0 0.0
2017-Sep-09 23:30N 54°59' W 001°31'0 0.0
2017-Sep-09 23:00N 54°59' W 001°31'0 0.0
2017-Sep-09 22:30N 54°59' W 001°31'0 0.0
2017-Sep-09 21:51N 54°59' W 001°31'0 0.0
2017-Sep-09 21:21N 54°59' W 001°31'0 0.0
2017-Sep-09 20:51N 54°59' W 001°31'0 0.0
2017-Sep-09 20:18N 54°59' W 001°31'0 0.0
2017-Sep-09 19:54N 54°59' W 001°31'0 0.0
2017-Sep-09 19:21N 54°59' W 001°31'0 0.0
2017-Sep-09 18:54N 54°59' W 001°31'0 0.0
2017-Sep-09 18:24N 54°59' W 001°31'0 0.0
2017-Sep-09 17:57N 54°59' W 001°31'0 0.0
2017-Sep-09 17:27N 54°59' W 001°31'0 0.0
2017-Sep-09 16:57N 54°59' W 001°31'0 0.1
2017-Sep-09 16:30N 54°59' W 001°31'1 1.3
2017-Sep-09 16:00N 54°59' W 001°30'2 5.0
2017-Sep-09 15:30N 55°00' W 001°26'3 5.5
2017-Sep-09 15:00N 55°02' W 001°21'2 4.1
2017-Sep-09 14:30N 55°04' W 001°21'1 1.6
2017-Sep-09 14:00N 55°03' W 001°20'1 1.9
2017-Sep-09 13:30N 55°02' W 001°19'1 2.3
2017-Sep-09 13:00N 55°01' W 001°18'1 2.4
2017-Sep-09 12:30N 55°00' W 001°17'1 2.6
2017-Sep-09 12:00N 54°59' W 001°16'2 3.0
2017-Sep-09 11:30N 54°58' W 001°15'  

Dump ship's entire track history